createdAt,value
2023-03-02T00:01:54.833Z,18.47
2023-03-02T00:04:28.435Z,18.80
2023-03-02T00:07:00.143Z,19.00
2023-03-02T00:09:30.399Z,19.23
2023-03-02T00:11:59.077Z,20.57
2023-03-02T00:14:27.520Z,18.10
2023-03-02T00:16:55.821Z,17.17
2023-03-02T00:19:24.161Z,18.23
2023-03-02T00:21:52.519Z,16.10
2023-03-02T00:24:21.064Z,17.60
2023-03-02T00:26:50.723Z,17.80
2023-03-02T00:29:19.112Z,18.57
2023-03-02T00:31:47.572Z,21.63
2023-03-02T00:34:16.985Z,18.27
2023-03-02T00:36:45.333Z,19.53
2023-03-02T00:39:13.583Z,18.37
2023-03-02T00:41:41.828Z,21.33
2023-03-02T00:44:17.686Z,17.73
2023-03-02T00:46:46.639Z,19.60
2023-03-02T00:49:15.506Z,17.40
2023-03-02T00:51:43.895Z,20.57
2023-03-02T00:54:12.231Z,19.70
2023-03-02T00:56:40.577Z,18.90
2023-03-02T00:59:26.221Z,21.33
2023-03-02T01:02:02.717Z,23.83
2023-03-02T01:04:35.439Z,31.03
2023-03-02T01:07:08.190Z,28.73
2023-03-02T01:09:36.474Z,25.40
2023-03-02T01:12:05.619Z,25.33
2023-03-02T01:14:35.405Z,25.13
2023-03-02T01:17:04.053Z,26.57
2023-03-02T01:19:32.418Z,28.90
2023-03-02T01:22:01.004Z,37.53
2023-03-02T01:24:29.503Z,34.40
2023-03-02T01:26:58.026Z,33.37
2023-03-02T01:29:26.533Z,34.87
2023-03-02T01:31:56.242Z,39.90
2023-03-02T01:34:24.710Z,35.93
2023-03-02T01:36:53.063Z,41.80
2023-03-02T01:39:23.054Z,38.50
2023-03-02T01:41:53.825Z,53.33
2023-03-02T01:44:42.579Z,50.20
2023-03-02T01:47:23.993Z,50.17
2023-03-02T01:50:02.779Z,55.00
2023-03-02T01:52:38.266Z,61.63
2023-03-02T01:55:11.503Z,60.23
2023-03-02T01:57:44.518Z,71.63
2023-03-02T02:00:19.864Z,74.90
2023-03-02T02:02:50.653Z,69.53
2023-03-02T02:05:24.087Z,89.43
2023-03-02T02:07:52.707Z,84.27
2023-03-02T02:10:21.740Z,96.87
2023-03-02T02:12:50.021Z,77.67
2023-03-02T02:15:18.524Z,98.97
2023-03-02T02:17:49.472Z,87.33
2023-03-02T02:20:29.904Z,102.60
2023-03-02T02:23:15.836Z,96.97
2023-03-02T02:26:07.456Z,98.00
2023-03-02T02:28:43.355Z,105.83
2023-03-02T02:31:17.294Z,133.97
2023-03-02T02:33:50.620Z,115.87
2023-03-02T02:36:26.115Z,123.57
2023-03-02T02:38:57.413Z,119.43
2023-03-02T02:41:35.093Z,132.60
2023-03-02T02:44:03.395Z,110.53
2023-03-02T02:46:33.164Z,110.67
2023-03-02T02:49:03.713Z,121.43
2023-03-02T02:51:33.107Z,121.33
2023-03-02T02:54:05.175Z,123.73
2023-03-02T02:56:40.441Z,138.77
2023-03-02T02:59:18.442Z,142.60
2023-03-02T03:01:47.507Z,148.27
2023-03-02T03:04:21.821Z,133.30
2023-03-02T03:06:58.184Z,131.87
2023-03-02T03:09:29.034Z,131.50
2023-03-02T03:12:04.384Z,161.47
2023-03-02T03:14:38.059Z,173.53
2023-03-02T03:17:12.541Z,152.77
2023-03-02T03:19:48.269Z,150.57
2023-03-02T03:22:18.379Z,150.37
2023-03-02T03:24:49.106Z,166.57
2023-03-02T03:27:20.590Z,171.17
2023-03-02T03:29:49.391Z,166.03
2023-03-02T03:32:20.287Z,151.43
2023-03-02T03:34:50.957Z,146.17
2023-03-02T03:37:32.100Z,171.77
2023-03-02T03:40:00.390Z,193.30
2023-03-02T03:42:31.647Z,126.73
2023-03-02T03:45:01.175Z,148.27
2023-03-02T03:47:29.761Z,125.80
2023-03-02T03:49:58.267Z,150.87
2023-03-02T03:52:30.768Z,137.07
2023-03-02T03:55:07.955Z,148.60
2023-03-02T03:57:38.047Z,132.10
2023-03-02T04:00:10.622Z,127.87
2023-03-02T04:02:43.081Z,140.27
2023-03-02T04:05:13.491Z,135.57
2023-03-02T04:07:42.715Z,137.50
2023-03-02T04:10:13.411Z,149.17
2023-03-02T04:12:45.150Z,138.70
2023-03-02T04:15:17.489Z,138.43
2023-03-02T04:17:47.814Z,121.90
2023-03-02T04:20:19.553Z,183.00
2023-03-02T04:22:53.883Z,147.80
2023-03-02T04:25:25.609Z,169.57
2023-03-02T04:27:59.368Z,150.13
2023-03-02T04:30:33.150Z,138.93
2023-03-02T04:33:01.692Z,146.83
2023-03-02T04:35:30.849Z,160.80
2023-03-02T04:38:00.807Z,144.13
2023-03-02T04:40:29.424Z,134.17
2023-03-02T04:42:59.079Z,151.43
2023-03-02T04:45:27.332Z,136.57
2023-03-02T04:47:55.645Z,135.23
2023-03-02T04:50:24.331Z,183.13
2023-03-02T04:52:52.605Z,139.67
2023-03-02T04:55:24.451Z,129.83
2023-03-02T04:57:52.832Z,118.20
2023-03-02T05:00:23.139Z,134.43
2023-03-02T05:02:52.112Z,126.30
2023-03-02T05:05:24.037Z,144.00
2023-03-02T05:07:53.357Z,146.20
2023-03-02T05:10:24.041Z,158.80
2023-03-02T05:12:57.836Z,141.40
2023-03-02T05:15:31.469Z,143.77
2023-03-02T05:18:00.904Z,157.13
2023-03-02T05:20:31.582Z,121.23
2023-03-02T05:23:02.598Z,144.50
2023-03-02T05:25:34.324Z,133.53
2023-03-02T05:28:03.532Z,129.57
2023-03-02T05:30:37.433Z,126.13
2023-03-02T05:33:05.932Z,137.20
2023-03-02T05:35:34.369Z,123.07
2023-03-02T05:38:02.651Z,129.27
2023-03-02T05:40:31.029Z,125.40
2023-03-02T05:42:59.478Z,123.93
2023-03-02T05:45:30.812Z,157.13
2023-03-02T05:48:00.688Z,157.00
2023-03-02T05:50:29.487Z,164.97
2023-03-02T05:52:58.279Z,149.53
2023-03-02T05:55:26.727Z,162.00
2023-03-02T05:57:55.044Z,137.07
2023-03-02T06:00:24.473Z,129.77
2023-03-02T06:02:52.826Z,142.90
2023-03-02T06:05:24.625Z,175.17
2023-03-02T06:07:52.924Z,163.37
2023-03-02T06:10:21.458Z,144.77
2023-03-02T06:12:49.763Z,127.80
2023-03-02T06:15:18.750Z,142.13
2023-03-02T06:17:47.131Z,148.27
2023-03-02T06:20:16.244Z,123.33
2023-03-02T06:22:48.431Z,140.47
2023-03-02T06:25:20.457Z,135.57
2023-03-02T06:27:51.601Z,132.27
2023-03-02T06:30:27.556Z,136.10
2023-03-02T06:32:56.072Z,132.00
2023-03-02T06:35:24.949Z,146.97
2023-03-02T06:37:54.717Z,132.93
2023-03-02T06:40:23.136Z,151.30
2023-03-02T06:42:51.669Z,138.67
2023-03-02T06:45:20.399Z,137.30
2023-03-02T06:47:48.693Z,138.43
2023-03-02T06:50:17.354Z,115.43
2023-03-02T06:52:45.642Z,134.20
2023-03-02T06:55:15.444Z,131.37
2023-03-02T06:57:43.797Z,121.80
2023-03-02T07:00:17.216Z,122.30
2023-03-02T07:02:46.383Z,109.63
2023-03-02T07:05:14.944Z,118.83
2023-03-02T07:07:43.603Z,122.20
2023-03-02T07:10:14.639Z,118.57
2023-03-02T07:12:44.121Z,110.63
2023-03-02T07:15:14.278Z,96.50
2023-03-02T07:17:45.020Z,93.03
2023-03-02T07:20:16.107Z,95.60
2023-03-02T07:22:45.154Z,81.63
2023-03-02T07:25:15.326Z,89.83
2023-03-02T07:27:43.950Z,82.47
2023-03-02T07:30:14.939Z,90.30
2023-03-02T07:32:43.808Z,79.83
2023-03-02T07:35:12.144Z,85.23
2023-03-02T07:37:40.809Z,89.70
2023-03-02T07:40:11.616Z,83.37
2023-03-02T07:42:41.434Z,83.03
2023-03-02T07:45:11.885Z,90.77
2023-03-02T07:47:40.224Z,83.87
2023-03-02T07:50:10.597Z,83.47
2023-03-02T07:52:40.035Z,89.60
2023-03-02T07:55:09.639Z,87.07
2023-03-02T07:57:38.123Z,83.80
2023-03-02T08:00:10.377Z,82.77
2023-03-02T08:02:42.504Z,83.70
2023-03-02T08:05:12.567Z,84.17
2023-03-02T08:07:41.077Z,71.57
2023-03-02T08:10:11.126Z,84.60
2023-03-02T08:12:39.522Z,75.00
2023-03-02T08:15:11.603Z,80.67
2023-03-02T08:17:39.965Z,82.77
2023-03-02T08:20:09.737Z,75.93
2023-03-02T08:22:38.170Z,73.60
2023-03-02T08:25:08.444Z,70.13
2023-03-02T08:27:36.837Z,62.10
2023-03-02T08:30:06.359Z,69.07
2023-03-02T08:32:36.392Z,60.97
2023-03-02T08:35:05.227Z,66.17
2023-03-02T08:37:34.739Z,55.87
2023-03-02T08:40:03.882Z,62.80
2023-03-02T08:42:32.272Z,62.90
2023-03-02T08:45:00.622Z,61.77
2023-03-02T08:47:29.023Z,63.90
2023-03-02T08:49:58.883Z,69.63
2023-03-02T08:52:27.470Z,63.40
2023-03-02T08:54:55.965Z,59.57
2023-03-02T08:57:24.412Z,57.53
2023-03-02T08:59:53.288Z,59.93
2023-03-02T09:02:21.616Z,52.93
2023-03-02T09:04:50.074Z,56.87
2023-03-02T09:07:19.888Z,51.27
2023-03-02T09:09:48.296Z,51.23
2023-03-02T09:12:16.700Z,55.03
2023-03-02T09:14:45.227Z,50.37
2023-03-02T09:17:15.637Z,57.67
2023-03-02T09:19:44.751Z,50.27
2023-03-02T09:22:13.467Z,55.83
2023-03-02T09:24:43.495Z,48.10
2023-03-02T09:27:11.908Z,52.07
2023-03-02T09:29:40.424Z,47.90
2023-03-02T09:32:09.567Z,51.20
2023-03-02T09:34:38.147Z,48.77
2023-03-02T09:37:06.594Z,44.83
2023-03-02T09:39:34.926Z,44.00
2023-03-02T09:42:43.137Z,48.03
2023-03-02T09:45:25.966Z,45.00
2023-03-02T09:48:11.784Z,39.37
2023-03-02T09:50:47.590Z,43.00
2023-03-02T09:53:40.974Z,40.60
2023-03-02T09:56:16.996Z,42.93
2023-03-02T09:58:55.039Z,41.47
2023-03-02T10:01:36.937Z,40.53
2023-03-02T10:04:19.669Z,40.60
2023-03-02T10:06:48.524Z,36.83
2023-03-02T10:09:16.861Z,40.27
2023-03-02T10:12:15.749Z,40.60
2023-03-02T10:14:53.999Z,37.43
2023-03-02T10:17:43.948Z,33.80
2023-03-02T10:20:20.458Z,35.57
2023-03-02T10:22:54.203Z,38.40
2023-03-02T10:25:34.147Z,37.60
2023-03-02T10:28:12.654Z,32.63
2023-03-02T10:30:43.020Z,33.33
2023-03-02T10:33:17.816Z,36.97
2023-03-02T10:35:50.026Z,34.63
2023-03-02T10:38:22.041Z,35.60
2023-03-02T10:40:57.003Z,34.30
2023-03-02T10:43:32.778Z,31.30
2023-03-02T10:46:07.459Z,35.50
2023-03-02T10:48:50.105Z,27.10
2023-03-02T10:51:28.335Z,33.17
2023-03-02T10:54:08.392Z,31.80
2023-03-02T10:56:37.397Z,29.27
2023-03-02T10:59:32.028Z,28.27
2023-03-02T11:02:03.179Z,31.63
2023-03-02T11:04:32.128Z,29.70
2023-03-02T11:07:12.163Z,28.23
2023-03-02T11:09:40.657Z,27.20
2023-03-02T11:12:16.258Z,26.40
2023-03-02T11:14:44.670Z,24.60
2023-03-02T11:17:35.222Z,24.30
2023-03-02T11:20:07.483Z,24.83
2023-03-02T11:22:45.004Z,26.20
2023-03-02T11:25:22.818Z,22.67
2023-03-02T11:27:57.932Z,27.10
2023-03-02T11:30:29.718Z,21.47
2023-03-02T11:33:08.796Z,22.70
2023-03-02T11:35:45.962Z,23.63
2023-03-02T11:38:22.556Z,25.60
2023-03-02T11:40:56.864Z,23.90
2023-03-02T11:43:25.508Z,23.13
2023-03-02T11:46:00.700Z,28.33
2023-03-02T11:48:35.342Z,26.00
2023-03-02T11:51:07.719Z,21.93
2023-03-02T11:53:45.002Z,25.67
2023-03-02T11:56:13.878Z,19.87
2023-03-02T11:58:45.477Z,21.70
2023-03-02T12:01:22.049Z,19.40
2023-03-02T12:03:53.053Z,19.23
2023-03-02T12:06:37.297Z,20.80
2023-03-02T12:09:31.187Z,17.57
2023-03-02T12:12:16.070Z,23.57
2023-03-02T12:14:44.500Z,22.57
2023-03-02T12:17:31.783Z,21.07
2023-03-02T12:20:27.576Z,17.70
2023-03-02T12:23:08.382Z,18.97
2023-03-02T12:25:51.165Z,15.87
2023-03-02T12:28:35.492Z,18.27
2023-03-02T12:31:08.498Z,19.77
2023-03-02T12:33:46.663Z,16.63
2023-03-02T12:36:26.999Z,13.77
2023-03-02T12:39:22.874Z,19.67
2023-03-02T12:42:23.790Z,12.73
2023-03-02T12:45:00.481Z,14.70
2023-03-02T12:47:31.066Z,15.87
2023-03-02T12:50:05.312Z,15.60
2023-03-02T12:52:38.366Z,16.27
2023-03-02T12:55:18.325Z,14.20
2023-03-02T12:57:50.876Z,16.47
2023-03-02T13:00:23.224Z,12.87
2023-03-02T13:02:54.883Z,13.50
2023-03-02T13:05:25.992Z,15.80
2023-03-02T13:08:01.852Z,14.70
2023-03-02T13:10:37.107Z,15.53
2023-03-02T13:13:18.189Z,15.57
2023-03-02T13:15:52.071Z,18.10
2023-03-02T13:18:22.916Z,17.50
2023-03-02T13:20:52.604Z,13.60
2023-03-02T13:23:22.740Z,18.43
2023-03-02T13:25:54.121Z,13.90
2023-03-02T13:28:31.450Z,12.33
2023-03-02T13:31:02.721Z,16.57
2023-03-02T13:33:34.724Z,14.57
2023-03-02T13:36:04.040Z,15.73
2023-03-02T13:38:38.818Z,14.10
2023-03-02T13:41:08.893Z,16.40
2023-03-02T13:43:40.533Z,13.37
2023-03-02T13:46:35.226Z,12.63
2023-03-02T13:49:10.610Z,11.37
2023-03-02T13:51:43.676Z,13.80
2023-03-02T13:54:22.509Z,15.30
2023-03-02T13:56:53.654Z,15.40
2023-03-02T13:59:23.542Z,16.00
2023-03-02T14:01:52.553Z,13.97
2023-03-02T14:04:24.016Z,15.37
2023-03-02T14:06:53.525Z,19.00
2023-03-02T14:09:23.461Z,17.10
2023-03-02T14:11:55.904Z,16.83
2023-03-02T14:14:28.772Z,13.30
2023-03-02T14:16:57.367Z,15.43
2023-03-02T14:19:25.895Z,14.50
2023-03-02T14:21:54.505Z,13.80
2023-03-02T14:24:24.410Z,12.93
2023-03-02T14:26:53.082Z,14.77
2023-03-02T14:29:27.383Z,17.10
2023-03-02T14:31:56.995Z,17.60
2023-03-02T14:34:25.470Z,15.73
2023-03-02T14:36:57.262Z,15.57
2023-03-02T14:39:38.011Z,15.53
2023-03-02T14:42:11.993Z,15.70
2023-03-02T14:44:40.433Z,16.23
2023-03-02T14:47:10.349Z,14.20
2023-03-02T14:49:39.423Z,12.90
2023-03-02T14:52:14.969Z,16.57
2023-03-02T14:54:49.288Z,16.97
2023-03-02T14:57:21.382Z,18.10
2023-03-02T14:59:50.177Z,15.57
2023-03-02T15:02:25.583Z,14.73
2023-03-02T15:04:57.073Z,14.20
2023-03-02T15:07:27.437Z,14.53
2023-03-02T15:09:57.980Z,15.53
2023-03-02T15:12:26.928Z,15.40
2023-03-02T15:14:55.282Z,15.83
2023-03-02T15:17:23.722Z,18.07
2023-03-02T15:19:52.143Z,16.93
2023-03-02T15:22:20.525Z,13.33
2023-03-02T15:24:48.895Z,13.70
2023-03-02T15:27:18.717Z,16.07
2023-03-02T15:29:48.186Z,12.17
2023-03-02T15:32:16.909Z,18.03
2023-03-02T15:34:45.497Z,13.33
2023-03-02T15:37:14.178Z,15.87
2023-03-02T15:39:42.694Z,14.40
2023-03-02T15:42:12.750Z,13.10
2023-03-02T15:44:43.588Z,14.50
2023-03-02T15:47:12.606Z,16.60
2023-03-02T15:49:41.125Z,12.63
2023-03-02T15:52:09.568Z,13.60
2023-03-02T15:54:37.953Z,10.90
2023-03-02T15:57:06.505Z,14.10
2023-03-02T15:59:35.154Z,14.33
2023-03-02T16:02:05.159Z,16.13
2023-03-02T16:04:35.046Z,12.00
2023-03-02T16:07:03.464Z,10.70
2023-03-02T16:09:32.086Z,12.77
2023-03-02T16:12:01.112Z,14.93
2023-03-02T16:14:29.607Z,16.83
2023-03-02T16:16:58.092Z,12.70
2023-03-02T16:19:28.437Z,12.83
2023-03-02T16:21:56.876Z,18.03
2023-03-02T16:24:25.794Z,15.73
2023-03-02T16:26:54.789Z,15.80
2023-03-02T16:29:24.229Z,17.30
2023-03-02T16:31:53.008Z,16.93
2023-03-02T16:34:21.663Z,20.40
2023-03-02T16:36:51.426Z,19.40
2023-03-02T16:39:19.808Z,20.33
2023-03-02T16:41:48.234Z,18.07
2023-03-02T16:44:17.029Z,20.13
2023-03-02T16:46:45.472Z,20.00
2023-03-02T16:49:15.125Z,20.80
2023-03-02T16:51:46.077Z,19.40
2023-03-02T16:54:18.196Z,17.30
2023-03-02T16:56:47.690Z,16.93
2023-03-02T16:59:16.271Z,21.97
2023-03-02T17:01:44.997Z,19.10
2023-03-02T17:04:13.457Z,20.30
2023-03-02T17:06:59.998Z,21.57
2023-03-02T17:09:30.601Z,22.80
2023-03-02T17:11:59.118Z,19.70
2023-03-02T17:14:28.017Z,22.30
2023-03-02T17:16:57.847Z,23.93
2023-03-02T17:19:26.965Z,26.77
2023-03-02T17:21:57.584Z,21.57
2023-03-02T17:24:26.289Z,24.33
2023-03-02T17:26:56.338Z,21.97
2023-03-02T17:29:24.933Z,24.20
2023-03-02T17:31:53.531Z,24.00
2023-03-02T17:34:22.270Z,20.87
2023-03-02T17:36:50.648Z,27.07
2023-03-02T17:39:19.018Z,22.90
2023-03-02T17:41:47.308Z,26.17
2023-03-02T17:44:17.069Z,27.80
2023-03-02T17:46:46.462Z,23.97
2023-03-02T17:49:15.059Z,27.83
2023-03-02T17:51:43.506Z,26.80
2023-03-02T17:54:11.983Z,26.40
2023-03-02T17:56:40.391Z,27.90
2023-03-02T17:59:08.774Z,25.13
2023-03-02T18:01:38.498Z,34.93
2023-03-02T18:04:07.255Z,28.70
2023-03-02T18:06:36.006Z,31.33
2023-03-02T18:09:04.909Z,29.67
2023-03-02T18:11:34.082Z,28.53
2023-03-02T18:14:02.774Z,26.23
2023-03-02T18:16:31.356Z,31.57
2023-03-02T18:19:01.257Z,33.13
2023-03-02T18:21:29.960Z,30.43
2023-03-02T18:23:59.449Z,36.90
2023-03-02T18:26:27.988Z,34.60
2023-03-02T18:28:56.624Z,33.40
2023-03-02T18:31:25.202Z,30.73
2023-03-02T18:33:53.627Z,31.20
2023-03-02T18:36:23.370Z,32.70
2023-03-02T18:38:53.096Z,30.33
2023-03-02T18:41:22.708Z,32.80
2023-03-02T18:43:51.688Z,31.17
2023-03-02T18:46:23.076Z,34.67
2023-03-02T18:48:52.845Z,33.03
2023-03-02T18:51:25.175Z,35.30
2023-03-02T18:53:54.357Z,32.20
2023-03-02T18:56:23.587Z,35.70
2023-03-02T18:58:52.481Z,44.23
2023-03-02T19:01:22.282Z,35.10
2023-03-02T19:03:50.746Z,35.00
2023-03-02T19:06:20.709Z,29.80
2023-03-02T19:08:50.950Z,35.43
2023-03-02T19:11:19.557Z,37.50
2023-03-02T19:13:48.106Z,34.73
2023-03-02T19:16:18.491Z,33.23
2023-03-02T19:18:47.164Z,34.17
2023-03-02T19:21:15.611Z,35.13
2023-03-02T19:23:45.621Z,35.80
2023-03-02T19:26:16.385Z,32.30
2023-03-02T19:28:44.844Z,32.87
2023-03-02T19:31:13.921Z,32.07
2023-03-02T19:33:44.997Z,33.60
2023-03-02T19:36:14.710Z,31.23
2023-03-02T19:38:44.411Z,33.07
2023-03-02T19:41:16.429Z,27.30
2023-03-02T19:43:46.117Z,35.53
2023-03-02T19:46:15.335Z,29.90
2023-03-02T19:48:43.835Z,34.60
2023-03-02T19:51:13.543Z,31.17
2023-03-02T19:53:43.560Z,34.33
2023-03-02T19:56:15.672Z,30.70
2023-03-02T19:58:49.806Z,33.20
2023-03-02T20:01:21.745Z,31.07
2023-03-02T20:03:51.697Z,31.40
2023-03-02T20:06:20.897Z,30.90
2023-03-02T20:08:49.695Z,35.50
2023-03-02T20:11:19.982Z,45.33
2023-03-02T20:13:50.615Z,36.40
2023-03-02T20:16:22.852Z,30.73
2023-03-02T20:18:51.462Z,29.63
2023-03-02T20:21:21.352Z,34.10
2023-03-02T20:23:49.997Z,29.80
2023-03-02T20:26:20.652Z,30.97
2023-03-02T20:28:49.734Z,32.23
2023-03-02T20:31:18.783Z,33.03
2023-03-02T20:33:51.730Z,33.43
2023-03-02T20:36:25.305Z,32.10
2023-03-02T20:38:59.137Z,37.93
2023-03-02T20:41:30.254Z,31.77
2023-03-02T20:43:58.739Z,31.33
2023-03-02T20:46:33.616Z,31.57
2023-03-02T20:49:02.546Z,29.27
2023-03-02T20:51:31.879Z,31.40
2023-03-02T20:54:00.449Z,28.03
2023-03-02T20:56:30.227Z,30.90
2023-03-02T20:58:58.862Z,34.23
2023-03-02T21:01:29.779Z,30.10
2023-03-02T21:03:58.447Z,32.73
2023-03-02T21:06:27.234Z,32.33
2023-03-02T21:08:55.599Z,41.23
2023-03-02T21:11:23.974Z,33.87
2023-03-02T21:13:55.647Z,29.50
2023-03-02T21:16:27.466Z,31.20
2023-03-02T21:18:56.595Z,31.13
2023-03-02T21:21:40.458Z,35.13
2023-03-02T21:24:10.440Z,38.27
2023-03-02T21:26:39.373Z,37.73
2023-03-02T21:29:09.484Z,34.10
2023-03-02T21:31:37.857Z,37.67
2023-03-02T21:34:06.305Z,37.60
2023-03-02T21:36:34.836Z,35.13
2023-03-02T21:39:04.163Z,37.07
2023-03-02T21:41:32.590Z,35.87
2023-03-02T21:44:00.976Z,40.30
2023-03-02T21:46:30.957Z,38.57
2023-03-02T21:48:59.754Z,40.43
2023-03-02T21:51:29.030Z,43.60
2023-03-02T21:53:57.383Z,38.20
2023-03-02T21:56:27.773Z,41.23
2023-03-02T21:58:58.338Z,38.10
2023-03-02T22:01:29.766Z,42.90
2023-03-02T22:04:00.648Z,44.40
2023-03-02T22:06:31.786Z,41.20
2023-03-02T22:09:01.484Z,44.17
2023-03-02T22:11:33.729Z,41.10
2023-03-02T22:14:11.475Z,50.67
2023-03-02T22:16:42.157Z,43.70
2023-03-02T22:19:26.432Z,53.60
2023-03-02T22:21:56.589Z,58.83
2023-03-02T22:24:28.821Z,50.00
2023-03-02T22:27:01.125Z,53.47
2023-03-02T22:29:32.954Z,53.80
2023-03-02T22:32:16.511Z,54.23
2023-03-02T22:34:48.719Z,54.20
2023-03-02T22:37:19.016Z,61.10
2023-03-02T22:39:47.996Z,60.60
2023-03-02T22:42:19.155Z,64.93
2023-03-02T22:44:52.554Z,63.10
2023-03-02T22:47:22.180Z,73.80
2023-03-02T22:49:58.929Z,62.63
2023-03-02T22:52:37.147Z,67.53
2023-03-02T22:55:35.027Z,63.07
2023-03-02T22:58:25.910Z,63.10
2023-03-02T23:00:55.043Z,68.00
2023-03-02T23:03:28.138Z,71.83
2023-03-02T23:05:57.883Z,64.03
2023-03-02T23:08:29.257Z,73.73
2023-03-02T23:10:59.980Z,81.00
2023-03-02T23:13:40.807Z,79.67
2023-03-02T23:16:18.293Z,68.20
2023-03-02T23:18:48.999Z,91.40
2023-03-02T23:21:22.473Z,98.13
2023-03-02T23:23:51.765Z,94.43
2023-03-02T23:26:21.554Z,101.07
2023-03-02T23:28:51.772Z,114.57
2023-03-02T23:31:20.362Z,97.60
2023-03-02T23:33:49.428Z,107.33
2023-03-02T23:36:21.164Z,99.57
2023-03-02T23:38:50.074Z,91.63
2023-03-02T23:41:18.791Z,106.87
2023-03-02T23:43:47.311Z,95.60
2023-03-02T23:46:15.706Z,98.03
2023-03-02T23:48:44.849Z,110.23
2023-03-02T23:51:13.533Z,110.30
2023-03-02T23:53:43.407Z,114.83
2023-03-02T23:56:12.535Z,112.97
2023-03-02T23:58:41.164Z,106.97
